| Place | Name | Time | Raw score | Score |
|---|---|---|---|---|
| 1 | -DarkLlama- | 35.45 | 1,000 | 336 |
| 2 | Ferreus | 35.62 | 900 | 302 |
| 3 | Terrapin | 35.78 | 859 | 288 |
| 4 | dannyburke03 | 36.85 | 827 | 278 |
| 5 | KnightBane | 37.83 | 800 | 269 |
| 6 | XiQu3sT | 39.97 | 777 | 261 |
| 7 | Formidable | 40.38 | 756 | 254 |
| 8 | jason | 41.22 | 736 | 247 |
| 9 | Jay2a | 41.89 | 718 | 241 |
| 10 | pigpenguin | 41.91 | 700 | 235 |
| 11 | Dimitri | 42.25 | 684 | 230 |
| 12 | Nico | 43.48 | 669 | 225 |
| 13 | Freud | 44.00 | 654 | 220 |
| 14 | [deleted] | 44.49 | 640 | 215 |
| 15 | IllKIllU | 44.71 | 626 | 210 |
| 16 | Sidewinder Fang | 44.80 | 613 | 206 |
| 17 | slug ʕ●.●ʔ | 45.21 | 600 | 201 |
| 18 | SpeedDemon64 | 47.30 | 588 | 197 |
| 19 | Ohnoitsmangofett | 47.63 | 576 | 193 |
| 20 | Tribow | 49.48 | 565 | 190 |
| 21 | Bridge | 49.95 | 553 | 186 |
| 22 | Draygone | 50.11 | 542 | 182 |
| 23 | Kinix | 51.11 | 531 | 178 |
| 24 | Nerf | 51.26 | 521 | 175 |
| 25 | RaiderZulu | 58.55 | 511 | 172 |
| 26 | i0nTempest | 1:01.27 | 500 | 168 |
| 27 | Dreigo | 1:02.73 | 491 | 165 |
| 28 | Azure Zakura | 1:04.86 | 481 | 161 |
| 29 | PPTREXFFT | 1:04.95 | 471 | 158 |
| 30 | Waonder | 1:05.30 | 462 | 155 |
| 31 | concil | 1:11.91 | 453 | 152 |
| 32 | Ktee | 1:12.35 | 444 | 149 |
| 33 | Henning | 1:15.97 | 435 | 146 |
| 34 | khrisround2 | 1:19.24 | 426 | 143 |
| 35 | Mei Rummy-chan | 1:19.31 | 417 | 140 |
| 36 | Predatory_Balloon | 1:19.88 | 409 | 137 |
| 37 | Iris | 1:19.99 | 400 | 134 |
| 38 | Latapi | 1:20.13 | 392 | 132 |
| 39 | Corecii | 1:20.27 | 384 | 129 |
| 40 | Kenaz | 1:21.17 | 376 | 126 |
| 41 | GammaFunction | 1:21.42 | 368 | 124 |
| 42 | SlowScan | 1:21.59 | 360 | 121 |
| 43 | M500 | 1:22.10 | 352 | 118 |
| 44 | Woren | 1:22.15 | 345 | 116 |
| 45 | PinesOfChaos | 1:22.22 | 337 | 113 |
| 46 | CodedCrow | 1:22.33 | 330 | 111 |
| 47 | mastern | 1:22.96 | 322 | 108 |
| 48 | Californ1a | 1:23.26 | 315 | 106 |
| 49 | Benji | 1:23.48 | 308 | 103 |
| 50 | Jarminx | 1:23.59 | 300 | 101 |
| 51 | [deleted] | 1:23.85 | 293 | 98 |
| 52 | PathToV1ctory | 1:24.41 | 286 | 96 |
| 53 | Backgrounds' | 1:24.54 | 279 | 94 |
| 54 | notguts | 1:24.65 | 272 | 91 |
| 55 | muffins | 1:25.82 | 266 | 89 |
| 56 | Other XIX | 1:26.66 | 259 | 87 |
| 57 | Samn | 1:26.72 | 252 | 85 |
| 57 | cerberus❤ | 1:26.72 | 252 | 85 |
| 59 | ViryGo19 | 1:27.11 | 239 | 80 |
| 60 | Highly | 1:27.20 | 232 | 78 |
| 61 | DefenderOfHyrule | 1:27.21 | 226 | 76 |
| 62 | Blu3 | 1:27.24 | 219 | 74 |
| 63 | pager | 1:27.27 | 213 | 71 |
| 63 | Cptnbean | 1:27.27 | 213 | 71 |
| 63 | krizithy | 1:27.27 | 213 | 71 |
| 66 | Blahaj Blast | 1:27.32 | 194 | 65 |
| 67 | bacon | 1:27.39 | 188 | 63 |
| 68 | fentanyl lover <3 | 1:27.40 | 182 | 61 |
| 69 | FluffyTheZombii | 1:27.46 | 176 | 59 |
| 70 | trigger_segfault | 1:27.49 | 170 | 57 |
| 70 | Wolf Black | 1:27.49 | 170 | 57 |
| 72 | Gray. | 1:27.52 | 158 | 53 |
| 73 | Mr. Doggy | 1:27.56 | 152 | 51 |
| 74 | G9 | 1:27.57 | 146 | 49 |
| 75 | SX64 | 1:27.58 | 140 | 47 |
| 76 | Overlord | 1:27.62 | 134 | 45 |
| 77 | lift your tail for me | 1:27.63 | 129 | 43 |
| 78 | Haunted Pleb | 1:27.64 | 123 | 41 |
| 79 | Sensokaku | 1:27.65 | 117 | 39 |
| 80 | CeruleanAzura | 1:27.66 | 112 | 38 |
| 81 | matheus paiva | 1:27.67 | 106 | 36 |
| 82 | lucascool12 | 1:27.68 | 100 | 34 |
| 82 | LobaDK | 1:27.68 | 100 | 34 |
| 84 | levinv270 | 1:27.69 | 89 | 30 |
| 85 | Rhetorical Question | 1:27.70 | 84 | 28 |
| 86 | Vash | 1:27.71 | 79 | 27 |
| 86 | Zany | 1:27.71 | 79 | 27 |
| 88 | JDthe3rd | 1:27.72 | 68 | 23 |
| 89 | codename_rb | 1:27.73 | 62 | 21 |
| 90 | DisQorded | 1:27.76 | 57 | 19 |
| 90 | Defiance_LLK | 1:27.76 | 57 | 19 |
| 90 | Quirked-up White Boy | 1:27.76 | 57 | 19 |
| 90 | Thermos | 1:27.76 | 57 | 19 |
| 94 | TinFoilMkIV | 1:27.80 | 36 | 12 |
| 95 | Joan6694 | 1:27.81 | 31 | 10 |
| 96 | toniqe53 | 1:27.82 | 26 | 9 |
| 97 | kriz_chan | 1:27.83 | 21 | 7 |
| 98 | Camel | 1:27.84 | 16 | 5 |
| 98 | HyperNova | 1:27.84 | 16 | 5 |
| 98 | VI_fizz | 1:27.84 | 16 | 5 |
| 101 | itsukarine | 1:27.86 | 0 | 0 |
| 102 | Crysest | 1:27.87 | 0 | 0 |
| 102 | TheEvilMidnightBomber | 1:27.87 | 0 | 0 |
| 104 | tortulaluna | 1:27.88 | 0 | 0 |
| 105 | GLUBBA | 1:27.91 | 0 | 0 |
| 106 | enyx | 1:27.92 | 0 | 0 |
| 107 | RetaliationGuy YT | 1:27.95 | 0 | 0 |
| 107 | Terr4 | 1:27.95 | 0 | 0 |
| 109 | TheMelonGod | 1:27.98 | 0 | 0 |
| 110 | HaxTheCharizard | 1:27.99 | 0 | 0 |
| 111 | Void | 1:28.00 | 0 | 0 |
| 112 | Epsilon_Knight | 1:28.01 | 0 | 0 |
| 112 | lift ur pooltoy tail for me | 1:28.01 | 0 | 0 |
| 114 | JayBoneJay | 1:28.02 | 0 | 0 |
| 115 | Gyodesis | 1:28.05 | 0 | 0 |
| 116 | Aespher | 1:28.06 | 0 | 0 |
| 116 | Verdor | 1:28.06 | 0 | 0 |
| 118 | Delhjiko | 1:28.07 | 0 | 0 |
| 119 | Nexhin | 1:28.09 | 0 | 0 |
| 119 | zombieassaultman | 1:28.09 | 0 | 0 |
| 119 | ReallyDumbFox | 1:28.09 | 0 | 0 |
| 122 | Kaliphear | 1:28.10 | 0 | 0 |
| 123 | Norz-Öril'Kern | 1:28.11 | 0 | 0 |
| 124 | ONLY STRAIGHT IS NORMAL, FREAKS! | 1:28.14 | 0 | 0 |
| 124 | KWP | 1:28.14 | 0 | 0 |
| 124 | NicholasKB19 | 1:28.14 | 0 | 0 |
| 127 | Battle Banana Chris Handsom | 1:28.19 | 0 | 0 |
| 128 | P E P S I M A N | 1:28.22 | 0 | 0 |
| 128 | C4tch | 1:28.22 | 0 | 0 |
| 130 | The Blue Fox | 1:28.25 | 0 | 0 |
| 130 | Deyla | 1:28.25 | 0 | 0 |
| 130 | Lazarus | 1:28.25 | 0 | 0 |
| 130 | DethHoun | 1:28.25 | 0 | 0 |
| 130 | Onneyon | 1:28.25 | 0 | 0 |
| 130 | DieselFace | 1:28.25 | 0 | 0 |
| 136 | Pseudocue | 1:28.27 | 0 | 0 |
| 137 | shy | 1:28.32 | 0 | 0 |
| 137 | HunterPlayz | 1:28.32 | 0 | 0 |
| 139 | Kurk Kurk | 1:28.33 | 0 | 0 |
| 139 | Pixel_ | 1:28.33 | 0 | 0 |
| 141 | Mar_Veloz | 1:28.35 | 0 | 0 |
| 142 | supersmily5 | 1:28.36 | 0 | 0 |
| 143 | Gloþ | 1:28.40 | 0 | 0 |
| 144 | Iron_Angmar | 1:28.43 | 0 | 0 |
| 145 | polybius99 | 1:28.46 | 0 | 0 |
| 146 | Lokamatoka | 1:28.47 | 0 | 0 |
| 147 | lord commander | 1:28.50 | 0 | 0 |
| 147 | Cancer Liquid | 1:28.50 | 0 | 0 |
| 147 | Joti | 1:28.50 | 0 | 0 |
| 150 | Vivid Empress | 1:28.51 | 0 | 0 |
| 151 | Makuta Zyber | 1:28.54 | 0 | 0 |
| 152 | Sartha | 1:28.55 | 0 | 0 |
| 153 | ^1WᴀʀᴘWɪʀᴇ | 1:28.57 | 0 | 0 |
| 153 | Liamzy | 1:28.57 | 0 | 0 |
| 155 | GaMiiX46 | 1:28.58 | 0 | 0 |
| 156 | 1MBStudios | 1:28.60 | 0 | 0 |
| 156 | Wanderer | 1:28.60 | 0 | 0 |
| 156 | jvdxn | 1:28.60 | 0 | 0 |
| 159 | EleventyB | 1:28.61 | 0 | 0 |
| 159 | ShadowWolf | 1:28.61 | 0 | 0 |
| 161 | Sxolian | 1:28.63 | 0 | 0 |
| 161 | Azem_of_Earth | 1:28.63 | 0 | 0 |
| 163 | Bobby | 1:28.67 | 0 | 0 |
| 163 | Meda | 1:28.67 | 0 | 0 |
| 165 | Numerousluke | 1:28.68 | 0 | 0 |
| 166 | Topaz95 | 1:28.70 | 0 | 0 |
| 167 | Mad Pac | 1:28.75 | 0 | 0 |
| 168 | Naoroji | 1:28.77 | 0 | 0 |
| 168 | Zineth101 | 1:28.77 | 0 | 0 |
| 168 | TTV_Sixprey | 1:28.77 | 0 | 0 |
| 171 | Alopex | 1:28.78 | 0 | 0 |
| 171 | Crognak, All-Father | 1:28.78 | 0 | 0 |
| 173 | Pelerin | 1:28.79 | 0 | 0 |
| 173 | NyctoGT | 1:28.79 | 0 | 0 |
| 175 | Krull | 1:28.80 | 0 | 0 |
| 175 | dinkleb3rg | 1:28.80 | 0 | 0 |
| 177 | Agent Starlight | 1:28.81 | 0 | 0 |
| 177 | Oetam | 1:28.81 | 0 | 0 |
| 179 | pcl219 | 1:28.83 | 0 | 0 |
| 180 | EteraKagekara | 1:28.84 | 0 | 0 |
| 181 | Wannabe Waifu | 1:28.86 | 0 | 0 |
| 182 | DEMON | 1:28.88 | 0 | 0 |
| 182 | ant | 1:28.88 | 0 | 0 |
| 182 | NUKA | 1:28.88 | 0 | 0 |
| 185 | Luminous | 1:28.90 | 0 | 0 |
| 186 | Lightbird | 1:28.92 | 0 | 0 |
| 186 | Nanohm The Protogen | 1:28.92 | 0 | 0 |
| 188 | Ramalis | 1:28.93 | 0 | 0 |
| 189 | Ruslan145 | 1:28.94 | 0 | 0 |
| 190 | Pointed Mammal29 | 1:28.96 | 0 | 0 |
| 190 | DewsForever[BR] | 1:28.96 | 0 | 0 |
| 192 | The Unusual Suspect | 1:28.97 | 0 | 0 |
| 192 | BerylRose | 1:28.97 | 0 | 0 |
| 192 | Hovex the Spider | 1:28.97 | 0 | 0 |
| 195 | Crespojazzman | 1:29.00 | 0 | 0 |
| 196 | TP-N.co PC-118 B-10001110101 | 1:29.02 | 0 | 0 |
| 197 | Host | 1:29.04 | 0 | 0 |
| 197 | Birb | 1:29.04 | 0 | 0 |
| 199 | Curious Fish | 1:29.05 | 0 | 0 |
| 200 | Sunkaaaaaaaaan | 1:29.06 | 0 | 0 |
| 201 | Zarifi | 1:29.08 | 0 | 0 |
| 202 | Zodiac | 1:29.10 | 0 | 0 |
| 203 | CHAINSAW MONKEY! | 1:29.13 | 0 | 0 |
| 203 | LittleKittyArtemis | 1:29.13 | 0 | 0 |
| 205 | Kypar | 1:29.14 | 0 | 0 |
| 206 | Nookie | 1:29.16 | 0 | 0 |
| 206 | BulletRain23 | 1:29.16 | 0 | 0 |
| 208 | Mr. Beefy | 1:29.19 | 0 | 0 |
| 209 | Vortexesz | 1:29.20 | 0 | 0 |
| 210 | SHAaD_Sicod | 1:29.22 | 0 | 0 |
| 211 | maple | 1:29.27 | 0 | 0 |
| 212 | Nielzos | 1:29.29 | 0 | 0 |
| 213 | Blade | 1:29.30 | 0 | 0 |
| 213 | Spotfire | 1:29.30 | 0 | 0 |
| 213 | Taelu | 1:29.30 | 0 | 0 |
| 216 | Nyra | 1:29.31 | 0 | 0 |
| 217 | Fishtales | 1:29.36 | 0 | 0 |
| 218 | Wyattwashere | 1:29.42 | 0 | 0 |
| 219 | Wildclaw | 1:29.46 | 0 | 0 |
| 220 | You Are Valid | 1:29.47 | 0 | 0 |
| 221 | LordPotato.json | 1:29.50 | 0 | 0 |
| 222 | Super_Shadow57 | 1:29.52 | 0 | 0 |
| 223 | delfiler | 1:29.53 | 0 | 0 |
| 223 | RagingPoet | 1:29.53 | 0 | 0 |
| 225 | MP X10L | 1:29.60 | 0 | 0 |
| 226 | Enso | 1:29.62 | 0 | 0 |
| 227 | Actual Subhuman Garbage | 1:29.72 | 0 | 0 |
| 228 | Lena The Snom Mom | 1:29.74 | 0 | 0 |
| 229 | blur | 1:29.77 | 0 | 0 |
| 229 | Soraho | 1:29.77 | 0 | 0 |
| 231 | BuzZoiD | 1:29.80 | 0 | 0 |
| 232 | Something really stupid | 1:29.84 | 0 | 0 |
| 233 | Monark10 | 1:29.94 | 0 | 0 |
| 234 | LOLO FAK | 1:29.95 | 0 | 0 |
| 235 | Jutkutus | 1:29.99 | 0 | 0 |
| 236 | PowerMeep | 1:30.03 | 0 | 0 |
| 237 | Nitrium | 1:30.04 | 0 | 0 |
| 237 | Ldarco1 | 1:30.04 | 0 | 0 |
| 239 | RobloxUwU | 1:30.10 | 0 | 0 |
| 239 | Dyltra | 1:30.10 | 0 | 0 |
| 241 | The Male Gamer | 1:30.14 | 0 | 0 |
| 241 | Sunnydan | 1:30.14 | 0 | 0 |
| 243 | Xiotis | 1:30.17 | 0 | 0 |
| 244 | SenseofCLouD | 1:30.21 | 0 | 0 |
| 245 | goodkeks | 1:30.24 | 0 | 0 |
| 246 | GTNeon | 1:30.31 | 0 | 0 |
| 247 | Dislin | 1:30.33 | 0 | 0 |
| 247 | twainface | 1:30.33 | 0 | 0 |
| 249 | Frozen Dino | 1:30.34 | 0 | 0 |
| 250 | Billy Bat | 1:30.40 | 0 | 0 |
| 251 | Gomorrha | 1:30.46 | 0 | 0 |
| 252 | gingerette95 | 1:30.61 | 0 | 0 |
| 253 | Jercasem | 1:30.67 | 0 | 0 |
| 254 | Raiden925 | 1:30.68 | 0 | 0 |
| 255 | Nickel | 1:30.70 | 0 | 0 |
| 256 | Dragonsbane1270 | 1:30.71 | 0 | 0 |
| 257 | DobreBobre | 1:30.73 | 0 | 0 |
| 258 | darthbob555 | 1:30.75 | 0 | 0 |
| 259 | ㄒㄖ卂丂ㄒ丨乙Ҝㄖㄖㄥ | 1:30.81 | 0 | 0 |
| 260 | littlebutts | 1:30.99 | 0 | 0 |
| 261 | DPftw | 1:31.19 | 0 | 0 |
| 262 | Taro | 1:31.20 | 0 | 0 |
| 263 | gusforester | 1:31.26 | 0 | 0 |
| 263 | SpicySpaceSnake | 1:31.26 | 0 | 0 |
| 265 | Alikey | 1:31.36 | 0 | 0 |
| 266 | Vestige | 1:31.43 | 0 | 0 |
| 267 | A Live Studio Audience | 1:31.58 | 0 | 0 |
| 268 | Ae1oURed | 1:31.61 | 0 | 0 |
| 269 | JaimmyShine | 1:31.62 | 0 | 0 |
| 270 | Numberkool | 1:31.67 | 0 | 0 |
| 270 | Dante | 1:31.67 | 0 | 0 |
| 272 | A very silly man indeed | 1:31.74 | 0 | 0 |
| 273 | Гвоздь | 1:31.86 | 0 | 0 |
| 274 | Extreme Pajamas | 1:31.90 | 0 | 0 |
| 275 | [OWL] Error404 | 1:31.92 | 0 | 0 |
| 276 | Uholyn | 1:32.02 | 0 | 0 |
| 276 | Edragon13 | 1:32.02 | 0 | 0 |
| 278 | Jonny | 1:32.04 | 0 | 0 |
| 279 | SashaBiceps | 1:32.11 | 0 | 0 |
| 280 | Weird Pumpkin | 1:32.13 | 0 | 0 |
| 281 | 猫かわいい | 1:32.16 | 0 | 0 |
| 282 | Grav | 1:32.23 | 0 | 0 |
| 283 | Naftal | 1:32.25 | 0 | 0 |
| 284 | Shadow_Axel | 1:32.29 | 0 | 0 |
| 285 | Bdine | 1:32.30 | 0 | 0 |
| 286 | Ultor | 1:32.41 | 0 | 0 |
| 287 | TS_Mind_Swept | 1:32.42 | 0 | 0 |
| 288 | Dosilox | 1:32.43 | 0 | 0 |
| 289 | AceArroww | 1:32.44 | 0 | 0 |
| 290 | Paparazzi | 1:32.52 | 0 | 0 |
| 291 | Spaceburger | 1:32.55 | 0 | 0 |
| 292 | Emma | 1:32.61 | 0 | 0 |
| 293 | Void Concept | 1:32.63 | 0 | 0 |
| 294 | Shyylock | 1:32.74 | 0 | 0 |
| 295 | Bundao da 2B Explode de Gostoso | 1:32.83 | 0 | 0 |
| 296 | Kibōchen | 1:32.86 | 0 | 0 |
| 297 | MAT D.R.⎛⎝≥⏝⏝≤⎠⎞ | 1:32.89 | 0 | 0 |
| 298 | Hotride | 1:32.92 | 0 | 0 |
| 299 | Apash | 1:33.02 | 0 | 0 |
| 299 | That One Panda | 1:33.02 | 0 | 0 |
| 301 | baakstaff | 1:33.05 | 0 | 0 |
| 302 | Ozymandias | 1:33.15 | 0 | 0 |
| 303 | Governor Tekagi | 1:33.22 | 0 | 0 |
| 303 | SPEEDYSPEEDBOI | 1:33.22 | 0 | 0 |
| 305 | Tuli | 1:33.23 | 0 | 0 |
| 306 | Zen | 1:33.30 | 0 | 0 |
| 307 | Spearmint | 1:33.36 | 0 | 0 |
| 308 | ItsMarcus | 1:33.38 | 0 | 0 |
| 309 | The K-man | 1:33.40 | 0 | 0 |
| 310 | Sky Captain | 1:33.51 | 0 | 0 |
| 311 | DROCHEPOLK | 1:33.60 | 0 | 0 |
| 312 | Diabetis4life | 1:33.70 | 0 | 0 |
| 313 | Snerlop | 1:33.74 | 0 | 0 |
| 314 | Lliane | 1:33.91 | 0 | 0 |
| 315 | Seshiruseth | 1:33.94 | 0 | 0 |
| 316 | burger | 1:33.95 | 0 | 0 |
| 317 | The Old GameR | 1:34.07 | 0 | 0 |
| 318 | PolychromeVirus | 1:34.15 | 0 | 0 |
| 319 | MystykZ | 1:34.16 | 0 | 0 |
| 320 | Its_Just_Dave | 1:34.17 | 0 | 0 |
| 321 | TheFluffyDragon/JBSTheGamer | 1:34.26 | 0 | 0 |
| 322 | Fleabag | 1:34.28 | 0 | 0 |
| 323 | Shroom | 1:34.36 | 0 | 0 |
| 324 | Ame | 1:34.43 | 0 | 0 |
| 325 | OnyonSwomp | 1:34.45 | 0 | 0 |
| 326 | Toastmaster | 1:34.60 | 0 | 0 |
| 327 | Earthnuker | 1:34.74 | 0 | 0 |
| 328 | MarsDevastater | 1:34.83 | 0 | 0 |
| 329 | Dany | 1:34.91 | 0 | 0 |
| 330 | Flaminglump | 1:34.92 | 0 | 0 |
| 331 | Vegetable Broth | 1:34.93 | 0 | 0 |
| 332 | Cylthir | 1:34.94 | 0 | 0 |
| 333 | krakentoa | 1:35.01 | 0 | 0 |
| 334 | Quantum Glitch | 1:35.09 | 0 | 0 |
| 335 | 문경왕개미 | 1:35.11 | 0 | 0 |
| 336 | Jam0344 | 1:35.20 | 0 | 0 |
| 337 | Agrrox | 1:35.27 | 0 | 0 |
| 338 | SIGSTACKFAULT | 1:35.29 | 0 | 0 |
| 339 | A Moldy Orange | 1:35.54 | 0 | 0 |
| 339 | mcatooch | 1:35.54 | 0 | 0 |
| 341 | Muggestutz | 1:35.62 | 0 | 0 |
| 342 | fischpferd | 1:35.65 | 0 | 0 |
| 342 | Mug | 1:35.65 | 0 | 0 |
| 344 | Cyxxus | 1:35.71 | 0 | 0 |
| 345 | BrandonK-TN | 1:35.72 | 0 | 0 |
| 346 | lefor0416 | 1:35.80 | 0 | 0 |
| 347 | Tones_8888 | 1:35.86 | 0 | 0 |
| 348 | Boomer McGeezer | 1:35.87 | 0 | 0 |
| 349 | Timme701 | 1:35.94 | 0 | 0 |
| 350 | Caffeinated Cow | 1:36.22 | 0 | 0 |
| 350 | Greeny^ | 1:36.22 | 0 | 0 |
| 352 | AVeryTastyCactus | 1:36.30 | 0 | 0 |
| 353 | MrXano | 1:36.38 | 0 | 0 |
| 354 | |SPQR| Toruk | 1:36.46 | 0 | 0 |
| 355 | cocob4 | 1:36.54 | 0 | 0 |
| 356 | Final | 1:36.67 | 0 | 0 |
| 357 | SneakySN | 1:36.69 | 0 | 0 |
| 358 | Nick | 1:36.74 | 0 | 0 |
| 359 | [Lard] Kriltch | 1:36.77 | 0 | 0 |
| 360 | Kaiji is moe | 1:36.83 | 0 | 0 |
| 361 | Magister Ludi | 1:36.89 | 0 | 0 |
| 362 | Simple | 1:37.02 | 0 | 0 |
| 363 | timawesomeness | 1:37.22 | 0 | 0 |
| 364 | Todd Bonzalez | 1:37.23 | 0 | 0 |
| 365 | Indigo | 1:37.24 | 0 | 0 |
| 366 | Gregg the Grim Reaper | 1:37.26 | 0 | 0 |
| 366 | Warriot | 1:37.26 | 0 | 0 |
| 368 | Reus | 1:37.28 | 0 | 0 |
| 369 | Tom | 1:37.29 | 0 | 0 |
| 370 | Zyon | 1:37.40 | 0 | 0 |
| 371 | The Enthusiaist | 1:37.48 | 0 | 0 |
| 372 | Rei | 1:37.51 | 0 | 0 |
| 373 | Tem | 1:37.60 | 0 | 0 |
| 374 | PineFreshGuy | 1:37.66 | 0 | 0 |
| 375 | s00 | 1:37.67 | 0 | 0 |
| 376 | fxskill | 1:37.70 | 0 | 0 |
| 377 | TantasStarke | 1:37.72 | 0 | 0 |
| 378 | Twinbee | 1:37.74 | 0 | 0 |
| 379 | Prof. Pinwheel | 1:37.76 | 0 | 0 |
| 380 | Domino | 1:37.77 | 0 | 0 |
| 381 | Seschbee | 1:37.79 | 0 | 0 |
| 382 | Velocitas | 1:37.84 | 0 | 0 |
| 383 | CygnusAutomata | 1:37.87 | 0 | 0 |
| 384 | hcg106 | 1:37.92 | 0 | 0 |
| 385 | < M A T > | 1:37.96 | 0 | 0 |
| 386 | Koffiekopje | 1:37.97 | 0 | 0 |
| 387 | darius | 1:38.04 | 0 | 0 |
| 388 | Winter's Crescendo | 1:38.06 | 0 | 0 |
| 389 | Melon | 1:38.14 | 0 | 0 |
| 390 | Grimmy | 1:38.17 | 0 | 0 |
| 391 | James Boned | 1:38.20 | 0 | 0 |
| 392 | VectorBot | 1:38.21 | 0 | 0 |
| 393 | Tessie | 1:38.24 | 0 | 0 |
| 394 | SunlessSoph | 1:38.27 | 0 | 0 |
| 395 | NaterrTheBull | 1:38.30 | 0 | 0 |
| 395 | James "Papa Het" Hetfield | 1:38.30 | 0 | 0 |
| 397 | Sugoi-desu (⊙‿⊙✿) | 1:38.35 | 0 | 0 |
| 398 | greenscorpeon3 | 1:38.39 | 0 | 0 |
| 399 | Sev | 1:38.42 | 0 | 0 |
| 400 | cuba | 1:38.43 | 0 | 0 |
| 401 | IanRosk | 1:38.47 | 0 | 0 |
| 402 | PalmTopDuck | 1:38.53 | 0 | 0 |
| 403 | minionmom82 | 1:38.56 | 0 | 0 |
| 404 | A̶͓̓z̷͓̍ũ̴̩r̷͔͐e̴ | 1:38.59 | 0 | 0 |
| 405 | Blacky Stranger | 1:38.63 | 0 | 0 |
| 405 | Waldo | 1:38.63 | 0 | 0 |
| 407 | Me0wzipan | 1:38.65 | 0 | 0 |
| 408 | MuckPie | 1:38.68 | 0 | 0 |
| 409 | Ape Tea | 1:38.75 | 0 | 0 |
| 409 | Unlight369 | 1:38.75 | 0 | 0 |
| 411 | 16aroth6 | 1:38.79 | 0 | 0 |
| 411 | Monitor3437 | 1:38.79 | 0 | 0 |
| 413 | Racheecha | 1:38.80 | 0 | 0 |
| 414 | Breno_SO | 1:38.84 | 0 | 0 |
| 415 | Sogg Toast | 1:38.86 | 0 | 0 |
| 416 | Spartan117® | 1:38.87 | 0 | 0 |
| 417 | Seinah | 1:38.92 | 0 | 0 |
| 417 | Jester Thomas | 1:38.92 | 0 | 0 |
| 419 | Andy95 | 1:38.94 | 0 | 0 |
| 420 | Pristine | 1:38.95 | 0 | 0 |
| 421 | Enzyme Machine | 1:38.96 | 0 | 0 |
| 422 | Sky_ | 1:39.02 | 0 | 0 |
| 423 | KaMozo25 | 1:39.05 | 0 | 0 |
| 424 | Unknown | 1:39.07 | 0 | 0 |
| 425 | Ploogus | 1:39.08 | 0 | 0 |
| 426 | DvN | 1:39.15 | 0 | 0 |
| 426 | Mattie Morgana | 1:39.15 | 0 | 0 |
| 428 | Recapes | 1:39.17 | 0 | 0 |
| 429 | DANTE_101 | 1:39.20 | 0 | 0 |
| 430 | Conbron ^-^ | 1:39.23 | 0 | 0 |
| 431 | ZedAxiom | 1:39.24 | 0 | 0 |
| 432 | Legoyoda | 1:39.25 | 0 | 0 |
| 433 | djmac | 1:39.36 | 0 | 0 |
| 434 | Keint | 1:39.48 | 0 | 0 |
| 434 | replikaeyes | 1:39.48 | 0 | 0 |
| 436 | Grabuge | 1:39.56 | 0 | 0 |
| 437 | EnderKill98 | 1:39.65 | 0 | 0 |
| 438 | Noah | 1:39.74 | 0 | 0 |
| 438 | snowstate | 1:39.74 | 0 | 0 |
| 440 | Zetron | 1:39.86 | 0 | 0 |
| 441 | Shaka | 1:39.88 | 0 | 0 |
| 442 | GenericTrash™ | 1:39.90 | 0 | 0 |
| 443 | Sunchipp Games | 1:39.95 | 0 | 0 |
| 444 | russ117 | 1:39.98 | 0 | 0 |
| 445 | Viridus | 1:39.99 | 0 | 0 |
| 446 | Dark Dane | 1:40.04 | 0 | 0 |
| 447 | PuppySky | 1:40.05 | 0 | 0 |
| 448 | ♿ | 1:40.06 | 0 | 0 |
| 449 | toasT | 1:40.09 | 0 | 0 |
| 450 | EzraW118 | 1:40.11 | 0 | 0 |
| 451 | MyurrDurr | 1:40.12 | 0 | 0 |
| 452 | phfphefph | 1:40.15 | 0 | 0 |
| 453 | NeonChaosAwoo | 1:40.17 | 0 | 0 |
| 454 | Elude | 1:40.34 | 0 | 0 |
| 455 | Henry_Hunter | 1:40.36 | 0 | 0 |
| 455 | ranger481 | 1:40.36 | 0 | 0 |
| 457 | Lywelyn | 1:40.37 | 0 | 0 |
| 458 | Mr. Doon | 1:40.41 | 0 | 0 |
| 459 | danny1234331 | 1:40.43 | 0 | 0 |
| 460 | Echo | 1:40.44 | 0 | 0 |
| 461 | CoJo12 | 1:40.48 | 0 | 0 |
| 462 | Neoblastz | 1:40.50 | 0 | 0 |
| 463 | ash | 1:40.51 | 0 | 0 |
| 464 | [BIT]IroncladWarbear | 1:40.62 | 0 | 0 |
| 465 | Kosyne | 1:40.64 | 0 | 0 |
| 466 | Ryukiza | 1:40.65 | 0 | 0 |
| 467 | Brianag010 | 1:40.69 | 0 | 0 |
| 468 | markschuurman1990 | 1:40.70 | 0 | 0 |
| 469 | CampingCarl | 1:40.72 | 0 | 0 |
| 470 | marf | 1:40.84 | 0 | 0 |
| 471 | DrPiggler | 1:40.85 | 0 | 0 |
| 472 | sendthefish | 1:40.91 | 0 | 0 |
| 473 | Kosvid | 1:40.95 | 0 | 0 |
| 473 | Abnormal Cybran | 1:40.95 | 0 | 0 |
| 475 | Lud | Forest | 1:41.02 | 0 | 0 |
| 476 | Trishphyre Paradox Developer | 1:41.07 | 0 | 0 |
| 477 | Western Ice Noodle | 1:41.13 | 0 | 0 |
| 478 | DrownedToSleep | 1:41.14 | 0 | 0 |
| 479 | Wolfe Procter | 1:41.18 | 0 | 0 |
| 480 | -≺Zinc≻- | 1:41.20 | 0 | 0 |
| 481 | Striker25 | 1:41.25 | 0 | 0 |
| 482 | NK - Néko | 1:41.29 | 0 | 0 |
| 483 | NonoGhettoYouth | 1:41.43 | 0 | 0 |
| 484 | 2Infinity&Evil | 1:41.45 | 0 | 0 |
| 485 | Plasmawario | 1:41.46 | 0 | 0 |
| 485 | LissomChunk | 1:41.46 | 0 | 0 |
| 487 | Jorban | 1:41.47 | 0 | 0 |
| 488 | Moonie | 1:41.48 | 0 | 0 |
| 489 | Indy1984 | 1:41.50 | 0 | 0 |
| 490 | GORAi | 1:41.56 | 0 | 0 |
| 491 | Lone_Bacon2 | 1:41.59 | 0 | 0 |
| 492 | Cerberus DCXVI | 1:41.64 | 0 | 0 |
| 493 | Lancer | 1:41.66 | 0 | 0 |
| 494 | Nova | 1:41.68 | 0 | 0 |
| 495 | DJairmaster | 1:41.69 | 0 | 0 |
| 496 | The Fonz | 1:41.73 | 0 | 0 |
| 497 | Qioury | 1:41.87 | 0 | 0 |
| 497 | Firestix | 1:41.87 | 0 | 0 |
| 497 | Pink | 1:41.87 | 0 | 0 |
| 500 | Algol | 1:41.89 | 0 | 0 |
| 501 | Xaiux | 1:41.95 | 0 | 0 |
| 502 | Crubo | 1:42.06 | 0 | 0 |
| 502 | Dekkosun™ | 1:42.06 | 0 | 0 |
| 504 | BombLance | 1:42.08 | 0 | 0 |
| 505 | Voxr | 1:42.09 | 0 | 0 |
| 506 | Jarek718 | 1:42.11 | 0 | 0 |
| 507 | 1:42.15 | 0 | 0 | |
| 508 | TG | 1:42.18 | 0 | 0 |
| 508 | The Flickering Remnant Effigy | 1:42.18 | 0 | 0 |
| 510 | ErzoopaRTR | 1:42.29 | 0 | 0 |
| 511 | Dinkleberg | 1:42.30 | 0 | 0 |
| 512 | racercowboy | 1:42.32 | 0 | 0 |
| 513 | Raynland McNuggets | 1:42.34 | 0 | 0 |
| 514 | FifteenBread | 1:42.35 | 0 | 0 |
| 515 | Machine Entity | 1:42.36 | 0 | 0 |
| 516 | Buff Nuts | 1:42.38 | 0 | 0 |
| 517 | Tech0verlord | 1:42.39 | 0 | 0 |
| 518 | JohnCorby | 1:42.40 | 0 | 0 |
| 519 | EndlessGaming | 1:42.48 | 0 | 0 |
| 520 | Iggulden | 1:42.52 | 0 | 0 |
| 521 | Villawitts | 1:42.55 | 0 | 0 |
| 522 | Sniggles | 1:42.58 | 0 | 0 |
| 523 | Chase | 1:42.66 | 0 | 0 |
| 524 | VBlehp | 1:42.68 | 0 | 0 |
| 525 | Onur | 1:42.92 | 0 | 0 |
| 526 | Red | 1:42.96 | 0 | 0 |
| 527 | WastedTemptation | 1:42.99 | 0 | 0 |
| 528 | GRBlue | 1:43.05 | 0 | 0 |
| 529 | Sock | 1:43.16 | 0 | 0 |
| 529 | Pippa Pipkin | 1:43.16 | 0 | 0 |
| 531 | Treme | 1:43.21 | 0 | 0 |
| 532 | tao | 1:43.22 | 0 | 0 |
| 533 | Pepe | 1:43.23 | 0 | 0 |
| 534 | ataraxia.wav | 1:43.27 | 0 | 0 |
| 535 | Gimba Cheese | 1:43.35 | 0 | 0 |
| 536 | [REDACTED] | 1:43.39 | 0 | 0 |
| 537 | Siyzerix | 1:43.45 | 0 | 0 |
| 538 | Woody | 1:43.50 | 0 | 0 |
| 539 | Josephine | 1:43.55 | 0 | 0 |
| 540 | Wolf | 1:43.57 | 0 | 0 |
| 541 | Dorphan | 1:43.62 | 0 | 0 |
| 542 | Alrunes | 1:43.79 | 0 | 0 |
| 543 | N U P U | 1:43.82 | 0 | 0 |
| 544 | DMRakdos | 1:43.85 | 0 | 0 |
| 545 | samson13 | 1:43.94 | 0 | 0 |
| 546 | Casmo | 1:44.05 | 0 | 0 |
| 547 | CaleB | 1:44.17 | 0 | 0 |
| 548 | MANTRONIX | 1:44.20 | 0 | 0 |
| 549 | Umbrasbane | 1:44.41 | 0 | 0 |
| 550 | Simon Evo | 1:44.48 | 0 | 0 |
| 551 | Keflon | 1:44.57 | 0 | 0 |
| 552 | Glas | 1:44.69 | 0 | 0 |
| 553 | Grammynumnums | 1:44.72 | 0 | 0 |
| 554 | Krazy8s | 1:44.82 | 0 | 0 |
| 555 | sWilder9 | 1:44.89 | 0 | 0 |
| 556 | Ori | 1:45.08 | 0 | 0 |
| 556 | Žydras | 1:45.08 | 0 | 0 |
| 558 | Schneidog | 1:45.11 | 0 | 0 |
| 559 | YoungBullZ28 | 1:45.21 | 0 | 0 |
| 560 | TheCandyMan36™ | 1:45.22 | 0 | 0 |
| 561 | Drix | 1:45.24 | 0 | 0 |
| 562 | Arthur | 1:45.27 | 0 | 0 |
| 563 | skuzzzy | 1:45.36 | 0 | 0 |
| 564 | rbrules | 1:45.38 | 0 | 0 |
| 565 | Astel | 1:45.42 | 0 | 0 |
| 566 | Patches | 1:45.53 | 0 | 0 |
| 567 | Jcav | 1:45.54 | 0 | 0 |
| 567 | Ditzy_Set | 1:45.54 | 0 | 0 |
| 569 | Jinks | 1:45.63 | 0 | 0 |
| 570 | EonShark | 1:45.69 | 0 | 0 |
| 571 | Pkaradactyl | 1:45.82 | 0 | 0 |
| 572 | Bohemius | 1:45.86 | 0 | 0 |
| 573 | Deriacus | 1:45.99 | 0 | 0 |
| 574 | Treffnix 3000 | 1:46.12 | 0 | 0 |
| 575 | Starchaser | 1:46.14 | 0 | 0 |
| 576 | 321longshot | 1:46.21 | 0 | 0 |
| 577 | TheEPROM9 LaTeX | 1:46.35 | 0 | 0 |
| 578 | Boucoque | 1:46.36 | 0 | 0 |
| 579 | YoloMoth | 1:46.54 | 0 | 0 |
| 580 | MetroidMan64 | 1:46.63 | 0 | 0 |
| 581 | Bullet074 | 1:46.65 | 0 | 0 |
| 582 | swad127 | 1:46.66 | 0 | 0 |
| 583 | menkaru | 1:46.67 | 0 | 0 |
| 584 | BlacKat | 1:46.69 | 0 | 0 |
| 584 | Slyxxe | 1:46.69 | 0 | 0 |
| 586 | JacquetheRipper | 1:46.82 | 0 | 0 |
| 587 | IzzytehWolf | 1:46.84 | 0 | 0 |
| 588 | Draktok | 1:46.85 | 0 | 0 |
| 589 | The Biggest [REDACTED] Ogre | 1:46.86 | 0 | 0 |
| 589 | Meltington | 1:46.86 | 0 | 0 |
| 591 | Ashton_bro | 1:46.89 | 0 | 0 |
| 592 | Chaito | 1:46.94 | 0 | 0 |
| 593 | SaltedFork | 1:47.03 | 0 | 0 |
| 594 | misami | 1:47.08 | 0 | 0 |
| 595 | A | 1:47.09 | 0 | 0 |
| 596 | Varlok | 1:47.15 | 0 | 0 |
| 597 | Valen | 1:47.17 | 0 | 0 |
| 598 | UltimateTone | 1:47.19 | 0 | 0 |
| 599 | cyace | 1:47.30 | 0 | 0 |
| 600 | ElHombre86 | 1:47.43 | 0 | 0 |
| 601 | Sondren1288 | 1:47.58 | 0 | 0 |
| 602 | youtube vembress | 1:47.60 | 0 | 0 |
| 603 | Holo | 1:47.69 | 0 | 0 |
| 604 | HeliosMagi | 1:47.71 | 0 | 0 |
| 605 | Razgriez | 1:47.93 | 0 | 0 |
| 605 | -zaz23- | 1:47.93 | 0 | 0 |
| 607 | domi | 1:48.01 | 0 | 0 |
| 608 | Big Bootiecoot | 1:48.13 | 0 | 0 |
| 608 | Najred | 1:48.13 | 0 | 0 |
| 610 | Prism Refract | 1:48.26 | 0 | 0 |
| 611 | < blank > | 1:48.42 | 0 | 0 |
| 612 | Miller Western © | 1:48.44 | 0 | 0 |
| 613 | vadimchelov | 1:48.50 | 0 | 0 |
| 614 | CouchyMuffin | 1:48.54 | 0 | 0 |
| 615 | KindGuillotine | 1:48.56 | 0 | 0 |
| 616 | Uganda Knuckles | 1:48.58 | 0 | 0 |
| 617 | Lupeling | 1:48.60 | 0 | 0 |
| 618 | Hornsking | 1:48.63 | 0 | 0 |
| 619 | LiquidShark | 1:48.66 | 0 | 0 |
| 620 | Dubblr | 1:48.67 | 0 | 0 |
| 621 | Kansil | 1:48.77 | 0 | 0 |
| 622 | Aimbrot, die Seegurke | 1:48.81 | 0 | 0 |
| 623 | Ryowulf768 | 1:48.82 | 0 | 0 |
| 624 | smug anime girl | 1:48.94 | 0 | 0 |
| 625 | 25 минут кайфа | 1:48.97 | 0 | 0 |
| 626 | Girahimu | 1:49.12 | 0 | 0 |
| 627 | Teshi | 1:49.15 | 0 | 0 |
| 628 | Sébastien Lecornu II | 1:49.34 | 0 | 0 |
| 629 | Animax | 1:49.56 | 0 | 0 |
| 630 | timanza | 1:49.63 | 0 | 0 |
| 631 | LelouchXV3 | 1:49.66 | 0 | 0 |
| 632 | Quake Matt | 1:49.72 | 0 | 0 |
| 633 | fffern | 1:49.75 | 0 | 0 |
| 634 | Hijacker02 | 1:49.79 | 0 | 0 |
| 635 | Rombommind | 1:49.85 | 0 | 0 |
| 636 | Loreckine | 1:49.87 | 0 | 0 |
| 637 | NoBody | 1:49.91 | 0 | 0 |
| 638 | Derdoron | 1:49.99 | 0 | 0 |
| 639 | Fergunnar | 1:50.03 | 0 | 0 |
| 640 | DigitalEden | 1:50.05 | 0 | 0 |
| 641 | Agroman12 | 1:50.12 | 0 | 0 |
| 642 | Fuffmydog | 1:50.18 | 0 | 0 |
| 643 | Binho0™ | 1:50.19 | 0 | 0 |
| 644 | Oblivious | 1:50.23 | 0 | 0 |
| 645 | Helpeg | 1:50.27 | 0 | 0 |
| 646 | Bean Buscus | 1:50.33 | 0 | 0 |
| 647 | CHRMOLOG | 1:50.39 | 0 | 0 |
| 648 | Ahhrealpeople | 1:50.40 | 0 | 0 |
| 649 | Spark | 1:50.43 | 0 | 0 |
| 650 | Adventure Buddy | 1:50.55 | 0 | 0 |
| 651 | Humphry | 1:50.58 | 0 | 0 |
| 652 | kwis | 1:50.61 | 0 | 0 |
| 653 | Toby | 1:50.66 | 0 | 0 |
| 654 | sкяʌ︎ʌ︎т | 1:50.74 | 0 | 0 |
| 655 | endergecko1218 | 1:50.75 | 0 | 0 |
| 656 | Eleven27 | 1:50.76 | 0 | 0 |
| 657 | Twinzninja | 1:50.80 | 0 | 0 |
| 658 | PleaseNoMore | 1:50.83 | 0 | 0 |
| 659 | CuddleStrike | 1:50.87 | 0 | 0 |
| 660 | Booler | 1:50.92 | 0 | 0 |
| 661 | Reaster | 1:51.30 | 0 | 0 |
| 662 | Hinfrem | 1:51.31 | 0 | 0 |
| 663 | Impatotec | 1:51.60 | 0 | 0 |
| 664 | Spuddles | 1:51.63 | 0 | 0 |
| 665 | Hirochi | 1:51.79 | 0 | 0 |
| 666 | Zinja | 1:51.83 | 0 | 0 |
| 667 | AyyLmeow | 1:51.90 | 0 | 0 |
| 668 | [NBD] PizzaHutDoxen | 1:51.92 | 0 | 0 |
| 669 | Anerix (Paradox) Cormin Quanadol | 1:52.03 | 0 | 0 |
| 670 | Misuri | 1:52.10 | 0 | 0 |
| 671 | btyrellb125 | 1:52.16 | 0 | 0 |
| 672 | Rocket Lad | 1:52.18 | 0 | 0 |
| 673 | BesRezen | 1:52.23 | 0 | 0 |
| 674 | [deleted] | 1:52.24 | 0 | 0 |
| 675 | Therio | 1:52.25 | 0 | 0 |
| 676 | Athice | 1:52.28 | 0 | 0 |
| 677 | RL | 1:52.34 | 0 | 0 |
| 677 | gslayer14 | 1:52.34 | 0 | 0 |
| 679 | [iNk] Primus | 1:52.37 | 0 | 0 |
| 679 | GoldenDragon314 | 1:52.37 | 0 | 0 |
| 681 | Seal_Otter | 1:52.38 | 0 | 0 |
| 681 | WitchOnFire | 1:52.38 | 0 | 0 |
| 683 | Toxicologixal | 1:52.40 | 0 | 0 |
| 684 | lynch` | 1:52.46 | 0 | 0 |
| 685 | Snekis Khan ( ‵□') ︵ | 1:52.52 | 0 | 0 |
| 686 | Admiral Flanker | 1:52.71 | 0 | 0 |
| 686 | Johnnino | 1:52.71 | 0 | 0 |
| 688 | PurpleSuede | 1:52.82 | 0 | 0 |
| 689 | markw75s | 1:52.96 | 0 | 0 |
| 690 | SirWanksalot | 1:52.97 | 0 | 0 |
| 691 | tapmasterj14 | 1:53.10 | 0 | 0 |
| 692 | Bunker475 | 1:53.16 | 0 | 0 |
| 693 | Deathwithagrin | 1:53.19 | 0 | 0 |
| 694 | Renault Modus phase 2 | 1:53.29 | 0 | 0 |
| 695 | TerraHawk | 1:53.30 | 0 | 0 |
| 696 | Ekzarcun | 1:53.33 | 0 | 0 |
| 697 | SirDan | 1:53.54 | 0 | 0 |
| 698 | Minefreak6633 | 1:53.58 | 0 | 0 |
| 699 | Tim Starstriker | 1:53.63 | 0 | 0 |
| 700 | ( ჯ෴✘)helking | 1:53.72 | 0 | 0 |
| 701 | simplesystem | 1:53.81 | 0 | 0 |
| 702 | Mario | 1:53.88 | 0 | 0 |
| 703 | Meridius_IX / Lucas | 1:53.91 | 0 | 0 |
| 704 | XCVIBUR | 1:53.92 | 0 | 0 |
| 705 | BumbleFunkMcGee | 1:54.18 | 0 | 0 |
| 706 | Captain Frosty | 1:54.24 | 0 | 0 |
| 707 | Mr Elusive | 1:54.32 | 0 | 0 |
| 708 | SG-58 | 1:54.43 | 0 | 0 |
| 709 | Felixcalm | 1:54.61 | 0 | 0 |
| 710 | Sappytron | 1:54.64 | 0 | 0 |
| 711 | QueenRupti | 1:54.81 | 0 | 0 |
| 712 | Aertex | 1:54.83 | 0 | 0 |
| 713 | TurretCorruption | 1:54.95 | 0 | 0 |
| 714 | cheif22 | 1:55.01 | 0 | 0 |
| 715 | Turavis | 1:55.08 | 0 | 0 |
| 716 | FRΛCTURΞD SOUL | 1:55.13 | 0 | 0 |
| 717 | Eagl3 | 1:55.15 | 0 | 0 |
| 718 | BluntButters | 1:55.22 | 0 | 0 |
| 719 | . | 1:55.23 | 0 | 0 |
| 720 | Bistdocs | 1:55.27 | 0 | 0 |
| 721 | JeffTheBruh | 1:55.30 | 0 | 0 |
| 722 | Maugan Ra | 1:55.33 | 0 | 0 |
| 723 | Arca | 1:55.39 | 0 | 0 |
| 723 | rip in pieces | 1:55.39 | 0 | 0 |
| 725 | Arie | 1:55.60 | 0 | 0 |
| 725 | Detective Man | 1:55.60 | 0 | 0 |
| 727 | Khailz | 1:55.61 | 0 | 0 |
| 728 | Hawaiano | 1:55.64 | 0 | 0 |
| 729 | Shadow34 | 1:55.66 | 0 | 0 |
| 730 | Tijilion | 1:55.74 | 0 | 0 |
| 731 | SkyCaptain502 | 1:55.80 | 0 | 0 |
| 732 | Lardo | 1:55.82 | 0 | 0 |
| 733 | Aldebaran | 1:55.92 | 0 | 0 |
| 734 | mos | 1:55.99 | 0 | 0 |
| 735 | Schranzinator | 1:56.09 | 0 | 0 |
| 736 | Hightree | 1:56.10 | 0 | 0 |
| 737 | Honnse | 1:56.11 | 0 | 0 |
| 738 | Joyce | 1:56.17 | 0 | 0 |
| 739 | ArtIbex | 1:56.21 | 0 | 0 |
| 740 | Xenu | 1:56.23 | 0 | 0 |
| 741 | Skrigar | 1:56.34 | 0 | 0 |
| 742 | Ivoryshovel | 1:56.45 | 0 | 0 |
| 742 | SuperTechDragon | 1:56.45 | 0 | 0 |
| 744 | Hungolomghononoloughongous | 1:56.50 | 0 | 0 |
| 745 | Number_C0de | 1:56.53 | 0 | 0 |
| 746 | 01011011010 | 1:56.68 | 0 | 0 |
| 747 | ´H U E V O S' | 1:56.71 | 0 | 0 |
| 748 | Man | 1:56.86 | 0 | 0 |
| 749 | The Good Gaming Dragon | 1:56.89 | 0 | 0 |
| 750 | Renota | 1:56.94 | 0 | 0 |
| 751 | Spacefarer | 1:56.99 | 0 | 0 |
| 752 | Sleve McDichael | 1:57.13 | 0 | 0 |
| 753 | siafa | 1:57.20 | 0 | 0 |
| 754 | Sladkeff | 1:57.25 | 0 | 0 |
| 754 | Kincaid | 1:57.25 | 0 | 0 |
| 756 | GaiaGaiyus | 1:57.33 | 0 | 0 |
| 757 | Ayre | 1:57.50 | 0 | 0 |
| 758 | TheIgnadog | 1:57.51 | 0 | 0 |
| 759 | (SP)War4Ever | 1:57.52 | 0 | 0 |
| 760 | edc | 1:57.75 | 0 | 0 |
| 761 | Owlkaline | 1:57.77 | 0 | 0 |
| 762 | dan7999 | 1:57.79 | 0 | 0 |
| 763 | Interpunct | 1:57.87 | 0 | 0 |
| 764 | Mike | 1:57.97 | 0 | 0 |
| 764 | Rensis Coren | 1:57.97 | 0 | 0 |
| 766 | ShotgunSalad | 1:58.11 | 0 | 0 |
| 767 | joltz | 1:58.13 | 0 | 0 |
| 768 | Turnabout Grag | 1:58.32 | 0 | 0 |
| 769 | Player145 | 1:58.38 | 0 | 0 |
| 770 | l2uStefka | 1:58.63 | 0 | 0 |
| 771 | Pexillien | 1:58.71 | 0 | 0 |
| 772 | Moodeng | 1:58.75 | 0 | 0 |
| 773 | Pompous Whale | 1:58.93 | 0 | 0 |
| 774 | PappaJohn'sOfficial | 1:58.98 | 0 | 0 |
| 775 | adobesmurf | 1:59.00 | 0 | 0 |
| 776 | Apocalyptic Bunny | 1:59.04 | 0 | 0 |
| 777 | Eikunai | 1:59.05 | 0 | 0 |
| 778 | Squishy | 1:59.15 | 0 | 0 |
| 779 | Acedia | 1:59.21 | 0 | 0 |
| 780 | I am tired | 1:59.28 | 0 | 0 |
| 781 | FlangEG | 1:59.40 | 0 | 0 |
| 782 | Shyny Magikarp 🔸 | 1:59.44 | 0 | 0 |
| 783 | Darth Sand | 1:59.67 | 0 | 0 |
| 784 | Darkness | 1:59.69 | 0 | 0 |
| 785 | FlipperDaddy | 1:59.83 | 0 | 0 |
| 786 | [NR] Miyu012 | 1:59.98 | 0 | 0 |
| 787 | Flaccid Assassin | 2:00.01 | 0 | 0 |
| 788 | Pripo | 2:00.10 | 0 | 0 |
| 789 | SlenderBonnie | 2:00.11 | 0 | 0 |
| 790 | LemonIsland | 2:00.15 | 0 | 0 |
| 791 | Vencer_FRC | 2:00.17 | 0 | 0 |
| 792 | Analabdul | 2:00.18 | 0 | 0 |
| 793 | RuskiRussian | 2:00.21 | 0 | 0 |
| 794 | Confetti | 2:00.45 | 0 | 0 |
| 795 | Squidy_Blu | 2:00.70 | 0 | 0 |
| 796 | Sturmwut | 2:00.72 | 0 | 0 |
| 797 | Tybalt the First | 2:00.99 | 0 | 0 |
| 798 | Leviticus Blue | 2:01.02 | 0 | 0 |
| 799 | unsthuthn | 2:01.10 | 0 | 0 |
| 800 | redcrowx | 2:01.38 | 0 | 0 |
| 801 | yuri gagarin's creamy interior | 2:01.53 | 0 | 0 |
| 802 | RhinoBlindado | 2:01.63 | 0 | 0 |
| 803 | Sir Johan | 2:01.69 | 0 | 0 |
| 804 | <color=#00c9ff>Sans | 2:01.77 | 0 | 0 |
| 805 | Ashen Marx | 2:01.78 | 0 | 0 |
| 806 | Keiyo | 2:01.85 | 0 | 0 |
| 807 | Jukey J | 2:01.96 | 0 | 0 |
| 808 | Loys Nuva | 2:02.11 | 0 | 0 |
| 809 | sparx041 | 2:02.33 | 0 | 0 |
| 810 | Ostman | 2:02.59 | 0 | 0 |
| 811 | a&b | 2:02.66 | 0 | 0 |
| 812 | Eggs Gwenedict | 2:02.70 | 0 | 0 |
| 813 | Meep | 2:02.73 | 0 | 0 |
| 813 | Traetors | 2:02.73 | 0 | 0 |
| 815 | thetruecow56 | 2:02.87 | 0 | 0 |
| 816 | Muusdude | 2:02.88 | 0 | 0 |
| 817 | Archi | 2:02.92 | 0 | 0 |
| 818 | arkhayem | 2:02.96 | 0 | 0 |
| 819 | Siyan | 2:03.04 | 0 | 0 |
| 820 | shi+0rty | 2:03.14 | 0 | 0 |
| 821 | Andrew Richman | 2:03.30 | 0 | 0 |
| 821 | pie | 2:03.30 | 0 | 0 |
| 823 | Ministro | 2:03.40 | 0 | 0 |
| 824 | Defect | 2:03.58 | 0 | 0 |
| 825 | ReadWriteError | 2:03.64 | 0 | 0 |
| 826 | J4M3Z34 | 2:03.69 | 0 | 0 |
| 827 | novae99 | 2:03.83 | 0 | 0 |
| 828 | Sibsen | 2:03.96 | 0 | 0 |
| 829 | Bear | 2:03.97 | 0 | 0 |
| 830 | Crease | 2:03.99 | 0 | 0 |
| 831 | torcado | 2:04.00 | 0 | 0 |
| 832 | Bubba | 2:04.01 | 0 | 0 |
| 833 | pox | 2:04.03 | 0 | 0 |
| 834 | energize | 2:04.09 | 0 | 0 |
| 835 | Me an intellectual | 2:04.18 | 0 | 0 |
| 836 | TheBoredguyyy | 2:04.25 | 0 | 0 |
| 837 | Meldiron | 2:04.44 | 0 | 0 |
| 838 | HJQLF | 2:04.51 | 0 | 0 |
| 839 | AXISDEADMAN | 2:04.52 | 0 | 0 |
| 840 | GOOSE SATAN! | 2:04.56 | 0 | 0 |
| 841 | JC | 2:04.60 | 0 | 0 |
| 842 | Ellioty | 2:04.71 | 0 | 0 |
| 843 | JJ the housecat | 2:04.87 | 0 | 0 |
| 844 | MatscheMunkey | 2:04.92 | 0 | 0 |
| 845 | GetEmOtterHere | 2:05.00 | 0 | 0 |
| 846 | Hiddelgreyk | 2:05.05 | 0 | 0 |
| 847 | SauronGamer | 2:05.06 | 0 | 0 |
| 848 | Trinagan | 2:05.10 | 0 | 0 |
| 848 | Rip | 2:05.10 | 0 | 0 |
| 850 | Mistress Spitfire | 2:05.42 | 0 | 0 |
| 851 | leo998 | 2:05.44 | 0 | 0 |
| 852 | Cider_Crave | 2:05.58 | 0 | 0 |
| 853 | calne | 2:05.70 | 0 | 0 |
| 854 | KodaPop | 2:05.74 | 0 | 0 |
| 855 | solar_roller | 2:05.82 | 0 | 0 |
| 856 | Stracker | 2:05.84 | 0 | 0 |
| 857 | Natr | 2:06.06 | 0 | 0 |
| 858 | BennLivid | 2:06.23 | 0 | 0 |
| 859 | LeSpiper | 2:06.29 | 0 | 0 |
| 860 | Valankor | 2:06.40 | 0 | 0 |
| 861 | RyuKyotei | 2:06.46 | 0 | 0 |
| 862 | Tripy73 | 2:06.53 | 0 | 0 |
| 863 | Dazzle10 | 2:06.63 | 0 | 0 |
| 864 | hugelogan | 2:06.66 | 0 | 0 |
| 865 | leverposteifantomet | 2:06.99 | 0 | 0 |
| 866 | shrümii | 2:07.13 | 0 | 0 |
| 867 | Norminal | 2:07.18 | 0 | 0 |
| 868 | fedex | 2:07.27 | 0 | 0 |
| 869 | McFolt | 2:07.32 | 0 | 0 |
| 870 | Rodd Raxter | 2:07.37 | 0 | 0 |
| 871 | Louis Thau | 2:07.47 | 0 | 0 |
| 872 | Mathias | 2:07.66 | 0 | 0 |
| 873 | NyaNekoEngine | 2:07.80 | 0 | 0 |
| 874 | colt5656 | 2:07.83 | 0 | 0 |
| 875 | John34645 | 2:07.88 | 0 | 0 |
| 876 | ReverseUno | 2:07.99 | 0 | 0 |
| 877 | SW18 | 2:08.00 | 0 | 0 |
| 878 | p k i t | 2:08.09 | 0 | 0 |
| 879 | Bored to Death | 2:08.16 | 0 | 0 |
| 880 | D0HERRITT | 2:08.21 | 0 | 0 |
| 881 | Voltaic | 2:08.22 | 0 | 0 |
| 882 | BakaTsundere | 2:08.30 | 0 | 0 |
| 883 | Boomslang | 2:08.43 | 0 | 0 |
| 884 | inderinfi | 2:08.44 | 0 | 0 |
| 885 | A Very Angy Opossum | 2:08.71 | 0 | 0 |
| 885 | WizardOWozz | 2:08.71 | 0 | 0 |
| 887 | Yokai | 2:08.90 | 0 | 0 |
| 888 | a beaver | 2:08.95 | 0 | 0 |
| 889 | sushii~ | 2:08.96 | 0 | 0 |
| 889 | Jezo | 2:08.96 | 0 | 0 |
| 891 | Plushsealy | 2:09.01 | 0 | 0 |
| 892 | Fable | 2:09.06 | 0 | 0 |
| 893 | OlafOlafson | 2:09.08 | 0 | 0 |
| 894 | ✱ Ale | 2:09.20 | 0 | 0 |
| 895 | dragnor | 2:09.25 | 0 | 0 |
| 896 | Silver Lloyd | 2:09.34 | 0 | 0 |
| 897 | Geograde | 2:09.39 | 0 | 0 |
| 898 | shsnuzzle | 2:09.40 | 0 | 0 |
| 899 | Shadiest | 2:09.52 | 0 | 0 |
| 900 | Ices Blaze | 2:09.59 | 0 | 0 |
| 901 | sizifov | 2:09.65 | 0 | 0 |
| 902 | BaZMaN - Allkeyshop | 2:09.70 | 0 | 0 |
| 903 | Zaz | 2:09.73 | 0 | 0 |
| 904 | xanthousphoenix | 2:09.75 | 0 | 0 |
| 905 | Ivan Knotty | 2:09.87 | 0 | 0 |
| 906 | Tictactucrac [FR] | 2:09.97 | 0 | 0 |
| 906 | GrillbyToaster | 2:09.97 | 0 | 0 |
| 908 | Red Hood | 2:10.04 | 0 | 0 |
| 909 | Olsidu | 2:10.13 | 0 | 0 |
| 910 | Mister JT | 2:10.29 | 0 | 0 |
| 911 | Shjohn | 2:10.54 | 0 | 0 |
| 912 | Lightshift | 2:10.61 | 0 | 0 |
| 913 | jmdajm7 | 2:10.72 | 0 | 0 |
| 914 | Skiddlywiffers | 2:10.77 | 0 | 0 |
| 915 | Synchronize | 2:10.93 | 0 | 0 |
| 916 | Ranthos | 2:11.00 | 0 | 0 |
| 917 | R0gu3Sentin3l | 2:11.07 | 0 | 0 |
| 918 | Vinnie Scumbolli | 2:11.32 | 0 | 0 |
| 919 | Jinx | 2:11.33 | 0 | 0 |
| 920 | Kabelsalat | 2:11.51 | 0 | 0 |
| 921 | Dragonborn | 2:11.59 | 0 | 0 |
| 922 | DarkShadow | 2:11.62 | 0 | 0 |
| 923 | HalfPathetic | 2:11.64 | 0 | 0 |
| 924 | fart Official | 2:11.87 | 0 | 0 |
| 925 | Zacman | 2:11.91 | 0 | 0 |
| 926 | Шоколадка:) | 2:11.97 | 0 | 0 |
| 927 | BedrokiV | 2:12.01 | 0 | 0 |
| 928 | Nainji | 2:12.02 | 0 | 0 |
| 929 | vl4duu | 2:12.16 | 0 | 0 |
| 930 | Sunzara | 2:12.19 | 0 | 0 |
| 931 | DarkVoltageBCA | 2:12.22 | 0 | 0 |
| 932 | Shifted | 2:12.23 | 0 | 0 |
| 933 | NikoDaNeko | 2:12.30 | 0 | 0 |
| 934 | Megacrafter127 | 2:12.32 | 0 | 0 |
| 935 | Greenfire DX | 2:12.38 | 0 | 0 |
| 936 | раскайфован | 2:12.44 | 0 | 0 |
| 937 | le0n | 2:12.52 | 0 | 0 |
| 938 | johnchen40904 | 2:12.86 | 0 | 0 |
| 939 | Slemn | 2:13.05 | 0 | 0 |
| 940 | Jass5991 | 2:13.13 | 0 | 0 |
| 941 | BioPaw | 2:13.51 | 0 | 0 |
| 942 | Yang Pjoter II | 2:13.57 | 0 | 0 |
| 943 | Mr Mysterius | 2:13.72 | 0 | 0 |
| 944 | Based Q | 2:13.75 | 0 | 0 |
| 945 | Cmdr Riker | 2:13.97 | 0 | 0 |
| 946 | Biggus Bovinus | 2:14.02 | 0 | 0 |
| 946 | FrostCorp | 2:14.02 | 0 | 0 |
| 948 | Yes Queen | 2:14.18 | 0 | 0 |
| 949 | fooffie | 2:14.24 | 0 | 0 |
| 950 | beans | 2:14.28 | 0 | 0 |
| 951 | Corey | 2:14.29 | 0 | 0 |
| 952 | Vynll | 2:14.33 | 0 | 0 |
| 953 | Xela | 2:14.39 | 0 | 0 |
| 954 | Sgt_Snowcone | 2:14.42 | 0 | 0 |
| 955 | Lemon | 2:14.54 | 0 | 0 |
| 956 | TheEdIsNotAmused | 2:14.74 | 0 | 0 |
| 957 | PlΣXi | 2:14.87 | 0 | 0 |
| 958 | lucas | 2:14.88 | 0 | 0 |
| 959 | Spur | 2:14.99 | 0 | 0 |
| 960 | Mike4584 | 2:15.27 | 0 | 0 |
| 961 | Mr. Moebius | 2:15.57 | 0 | 0 |
| 962 | Retoraxik | 2:15.79 | 0 | 0 |
| 963 | Kashuzu | 2:15.82 | 0 | 0 |
| 964 | TubeGuy | 2:16.25 | 0 | 0 |
| 965 | NakDak | 2:16.29 | 0 | 0 |
| 966 | Jeebus | 2:16.71 | 0 | 0 |
| 967 | Smito | 2:16.89 | 0 | 0 |
| 968 | we is literally the elfs | 2:17.08 | 0 | 0 |
| 969 | SirLiveAlot | 2:17.13 | 0 | 0 |
| 970 | GlacialRoses | 2:17.21 | 0 | 0 |
| 971 | 1Hp♰ | 2:17.30 | 0 | 0 |
| 972 | Cod Peterson | 2:17.31 | 0 | 0 |
| 973 | Zoombie_™ | 2:17.34 | 0 | 0 |
| 974 | Gemis037 | 2:17.47 | 0 | 0 |
| 975 | Bubbet! | 2:17.56 | 0 | 0 |
| 976 | Ónix | 2:17.62 | 0 | 0 |
| 977 | Solar Field | 2:17.84 | 0 | 0 |
| 978 | KaBeu | 2:17.91 | 0 | 0 |
| 979 | Aperture Dude | 2:18.31 | 0 | 0 |
| 980 | Pinguin | 2:18.34 | 0 | 0 |
| 981 | R1PP | 2:18.53 | 0 | 0 |
| 982 | Lémohn | 2:18.62 | 0 | 0 |
| 983 | Halo God | 2:18.69 | 0 | 0 |
| 984 | Verity | 2:19.25 | 0 | 0 |
| 985 | doggiHugo | 2:19.45 | 0 | 0 |
| 986 | ~Astral Skies~ | 2:20.05 | 0 | 0 |
| 987 | Calcarious | 2:20.09 | 0 | 0 |
| 988 | Echor | 2:20.26 | 0 | 0 |
| 989 | Wylde.Tuk | 2:20.30 | 0 | 0 |
| 990 | Roggee | 2:20.33 | 0 | 0 |
| 991 | Rhombus | 2:20.51 | 0 | 0 |
| 992 | aingel | 2:20.66 | 0 | 0 |
| 993 | HISKI LP | 2:20.71 | 0 | 0 |
| 994 | Евгений Пригожин | 2:21.04 | 0 | 0 |
| 995 | elder matthew | 2:21.11 | 0 | 0 |
| 996 | Artifact | 2:21.20 | 0 | 0 |
| 997 | cammyhammyha | 2:21.80 | 0 | 0 |
| 998 | hAwG | 2:21.81 | 0 | 0 |
| 999 | Burashi | 2:21.98 | 0 | 0 |
| 1,000 | Keny Arroyo | 2:22.02 | 0 | 0 |
| 1,001 | troysmith14 | 2:22.16 | 0 | 0 |
| 1,002 | HollyPotato | 2:22.31 | 0 | 0 |
| 1,003 | JamesArk | 2:22.57 | 0 | 0 |
| 1,003 | Neneko | 2:22.57 | 0 | 0 |
| 1,005 | Roy_ | 2:22.89 | 0 | 0 |
| 1,005 | IgoRexa | 2:22.89 | 0 | 0 |
| 1,007 | orbie | 2:22.91 | 0 | 0 |
| 1,008 | Gnarrang | 2:22.93 | 0 | 0 |
| 1,009 | 54mm7 | 2:23.00 | 0 | 0 |
| 1,010 | Slendy | 2:23.09 | 0 | 0 |
| 1,011 | Expired | 2:23.12 | 0 | 0 |
| 1,012 | Reinforce Virta | 2:23.18 | 0 | 0 |
| 1,013 | pixmantle | 2:23.32 | 0 | 0 |
| 1,014 | TheHimta | 2:23.49 | 0 | 0 |
| 1,015 | Bara_Coded[FR] | 2:23.65 | 0 | 0 |
| 1,016 | Livie | 2:23.78 | 0 | 0 |
| 1,017 | Loune Fire | 2:23.84 | 0 | 0 |
| 1,018 | Röschti | 2:23.88 | 0 | 0 |
| 1,019 | rocmanx654 | 2:24.05 | 0 | 0 |
| 1,020 | ᵛᶦʳᵃ | 2:24.16 | 0 | 0 |
| 1,021 | ado line | 2:24.55 | 0 | 0 |
| 1,022 | MrUnbecoming | 2:24.70 | 0 | 0 |
| 1,023 | Pryn | 2:24.73 | 0 | 0 |
| 1,024 | rz zombie | 2:24.79 | 0 | 0 |
| 1,025 | Legadon | 2:24.81 | 0 | 0 |
| 1,026 | mokkli | 2:24.98 | 0 | 0 |
| 1,027 | Grimn | 2:25.16 | 0 | 0 |
| 1,028 | Yukie | 2:25.39 | 0 | 0 |
| 1,029 | Eskora | 2:25.58 | 0 | 0 |
| 1,030 | Sparks | 2:25.69 | 0 | 0 |
| 1,031 | Glypse | 2:25.73 | 0 | 0 |
| 1,032 | Spark7979 | 2:25.89 | 0 | 0 |
| 1,033 | wang tulong | 2:25.90 | 0 | 0 |
| 1,034 | Jerico Pepino | 2:26.04 | 0 | 0 |
| 1,035 | TheSeaOfAsh | 2:26.21 | 0 | 0 |
| 1,036 | decom70 | 2:26.54 | 0 | 0 |
| 1,036 | Ay Scruh Jum Lord | 2:26.54 | 0 | 0 |
| 1,038 | Ryuki | 2:26.93 | 0 | 0 |
| 1,039 | AntiSol | 2:27.00 | 0 | 0 |
| 1,040 | Snow way it's AJD2k | 2:27.24 | 0 | 0 |
| 1,041 | Pregnant | 2:27.49 | 0 | 0 |
| 1,042 | Yee Rex | 2:27.70 | 0 | 0 |
| 1,043 | Iwak | 2:27.76 | 0 | 0 |
| 1,044 | Kunya The Scoot | 2:27.96 | 0 | 0 |
| 1,045 | S.Kappelmann | 2:28.22 | 0 | 0 |
| 1,046 | Sandi_Witch | 2:28.28 | 0 | 0 |
| 1,047 | The Grimspeeder | 2:28.51 | 0 | 0 |
| 1,048 | EndskendV | 2:28.70 | 0 | 0 |
| 1,049 | Creepersrock24Gaming | 2:29.05 | 0 | 0 |
| 1,050 | Wizard the Wizard | 2:29.14 | 0 | 0 |
| 1,051 | Dragnar The Meme God | 2:29.20 | 0 | 0 |
| 1,052 | Cerberus14 | 2:29.21 | 0 | 0 |
| 1,052 | DrifterSetOnline | 2:29.21 | 0 | 0 |
| 1,054 | Bilbobangboom | 2:29.43 | 0 | 0 |
| 1,055 | Redx | 2:29.46 | 0 | 0 |
| 1,056 | 42 | 2:29.55 | 0 | 0 |
| 1,057 | Zeo | 2:29.73 | 0 | 0 |
| 1,058 | BlvckMoonlight | 2:29.85 | 0 | 0 |
| 1,059 | Pinapl | 2:30.03 | 0 | 0 |
| 1,060 | michamech | 2:30.63 | 0 | 0 |
| 1,061 | yeehaw | 2:30.76 | 0 | 0 |
| 1,062 | Funny Leg Jiggle | 2:30.91 | 0 | 0 |
| 1,063 | Loot Hunter | 2:31.48 | 0 | 0 |
| 1,064 | Brock | 2:31.83 | 0 | 0 |
| 1,065 | rezzonating | 2:31.91 | 0 | 0 |
| 1,066 | Aphemora | 2:32.02 | 0 | 0 |
| 1,067 | smallfella | 2:32.25 | 0 | 0 |
| 1,068 | blamecoopa | 2:33.03 | 0 | 0 |
| 1,069 | Bdub 𒉭 240km/h PEEK | 2:33.30 | 0 | 0 |
| 1,070 | Tagger24 ☯ | 2:33.82 | 0 | 0 |
| 1,071 | TORTUGA | 2:34.11 | 0 | 0 |
| 1,072 | BYTC | 2:34.52 | 0 | 0 |
| 1,073 | science_team.png | 2:34.77 | 0 | 0 |
| 1,074 | Vyneci | 2:34.81 | 0 | 0 |
| 1,075 | Blexyde | 2:34.85 | 0 | 0 |
| 1,076 | Ene | 2:35.31 | 0 | 0 |
| 1,077 | Skrall' | 2:35.32 | 0 | 0 |
| 1,078 | Thechin | 2:35.42 | 0 | 0 |
| 1,079 | MeshuggaH | 2:35.46 | 0 | 0 |
| 1,080 | tipek360 | 2:36.08 | 0 | 0 |
| 1,081 | RAW3Z | 2:36.49 | 0 | 0 |
| 1,082 | DraconicBurners | 2:36.52 | 0 | 0 |
| 1,083 | Joselu25 | 2:36.94 | 0 | 0 |
| 1,084 | PIRATE | 2:37.02 | 0 | 0 |
| 1,085 | Nisesh | 2:37.07 | 0 | 0 |
| 1,086 | [deleted] | 2:37.13 | 0 | 0 |
| 1,087 | Birdiot | 2:37.16 | 0 | 0 |
| 1,088 | Crazyos | 2:37.80 | 0 | 0 |
| 1,089 | Nurufu | 2:38.31 | 0 | 0 |
| 1,090 | βεη | 2:38.68 | 0 | 0 |
| 1,091 | //HEI-HIKO | 2:39.28 | 0 | 0 |
| 1,092 | Noa3 | 2:39.43 | 0 | 0 |
| 1,093 | Jaeden7060 | 2:39.49 | 0 | 0 |
| 1,094 | VAL | Giogio | 2:39.87 | 0 | 0 |
| 1,095 | Gamga | 2:40.04 | 0 | 0 |
| 1,096 | ℛ𝓊𝓃𝑒 | 2:40.10 | 0 | 0 |
| 1,097 | I Am Jexx | 2:40.51 | 0 | 0 |
| 1,098 | Grensie | 2:40.74 | 0 | 0 |
| 1,099 | Pteroborne | 2:40.79 | 0 | 0 |
| 1,100 | conduit | 2:40.92 | 0 | 0 |
| 1,101 | TastyBatSoup | 2:40.97 | 0 | 0 |
| 1,102 | KianNotCyan | 2:41.09 | 0 | 0 |
| 1,103 | sour | 2:41.23 | 0 | 0 |
| 1,104 | Alexkurts | 2:41.53 | 0 | 0 |
| 1,105 | Alei Mahadei | 2:41.57 | 0 | 0 |
| 1,106 | 204863 | 2:41.67 | 0 | 0 |
| 1,107 | Rian (The Schmaltzy Cynic) | 2:41.86 | 0 | 0 |
| 1,108 | Doomy109 | 2:42.06 | 0 | 0 |
| 1,109 | ŚųñŞhìņëŠįx | 2:42.09 | 0 | 0 |
| 1,110 | Noble Ashina | 2:42.18 | 0 | 0 |
| 1,111 | Negaprion | 2:42.57 | 0 | 0 |
| 1,112 | malthazzar | 2:42.64 | 0 | 0 |
| 1,113 | Phaserlight | 2:43.19 | 0 | 0 |
| 1,114 | Zenixic | 2:43.36 | 0 | 0 |
| 1,115 | Moon Fairy Kyra | 2:43.56 | 0 | 0 |
| 1,116 | Despo_357 | 2:43.61 | 0 | 0 |
| 1,117 | Sgt Severe | 2:43.63 | 0 | 0 |
| 1,118 | AnonSchlingel | 2:44.08 | 0 | 0 |
| 1,119 | Phil | 2:44.13 | 0 | 0 |
| 1,120 | John Snorts Coke | 2:44.16 | 0 | 0 |
| 1,121 | Toppincattin | 2:44.19 | 0 | 0 |
| 1,122 | 『QPUNeptune』 | 2:44.26 | 0 | 0 |
| 1,123 | nenadalm | 2:44.30 | 0 | 0 |
| 1,124 | LukeDeadly | 2:44.53 | 0 | 0 |
| 1,125 | Aggressive Nerd | 2:44.96 | 0 | 0 |
| 1,126 | etheweirdo | 2:45.01 | 0 | 0 |
| 1,127 | Bubwubster | 2:45.16 | 0 | 0 |
| 1,128 | Kiwora | 2:45.36 | 0 | 0 |
| 1,129 | Bixia | 2:45.56 | 0 | 0 |
| 1,129 | Coconut | 2:45.56 | 0 | 0 |
| 1,131 | hip crusher | 2:46.75 | 0 | 0 |
| 1,132 | rtrrbttzhrte | 2:46.95 | 0 | 0 |
| 1,133 | Stellarynn | 2:47.12 | 0 | 0 |
| 1,134 | OddlyFrosty | 2:47.51 | 0 | 0 |
| 1,135 | TurtleByte | 2:47.70 | 0 | 0 |
| 1,136 | thunderella | 2:47.75 | 0 | 0 |
| 1,137 | PackerWolf | 2:47.80 | 0 | 0 |
| 1,138 | Nordman | 2:47.81 | 0 | 0 |
| 1,139 | boned avery | 2:47.85 | 0 | 0 |
| 1,140 | Tokyo. | 2:48.08 | 0 | 0 |
| 1,141 | The Reaper GG | 2:48.29 | 0 | 0 |
| 1,142 | Naikel [FR] | 2:49.05 | 0 | 0 |
| 1,143 | ə | 2:49.25 | 0 | 0 |
| 1,144 | Saujii2 | 2:49.49 | 0 | 0 |
| 1,145 | Shadowfax | 2:49.62 | 0 | 0 |
| 1,146 | Sokkero | 2:49.81 | 0 | 0 |
| 1,147 | Mouseochism | 2:49.90 | 0 | 0 |
| 1,148 | Uldergoff | 2:51.11 | 0 | 0 |
| 1,149 | squaredanced | 2:51.33 | 0 | 0 |
| 1,150 | Geertje | 2:51.85 | 0 | 0 |
| 1,151 | Jovanocity | 2:52.41 | 0 | 0 |
| 1,152 | Mama Luigi | 2:52.59 | 0 | 0 |
| 1,153 | Hydrochoerus | 2:52.94 | 0 | 0 |
| 1,154 | Tronbit | 2:53.56 | 0 | 0 |
| 1,155 | mrsbh3 | 2:53.89 | 0 | 0 |
| 1,156 | Mx | 2:55.92 | 0 | 0 |
| 1,157 | snugy_wumpkins [TNF] | 2:56.33 | 0 | 0 |
| 1,157 | SC000TER | 2:56.33 | 0 | 0 |
| 1,159 | Loki The Tiller | 2:56.58 | 0 | 0 |
| 1,160 | KJG | 2:57.22 | 0 | 0 |
| 1,161 | DuckInTheSoup | 2:58.34 | 0 | 0 |
| 1,162 | Drahcir Srewop | 2:58.36 | 0 | 0 |
| 1,163 | Winters | 2:58.99 | 0 | 0 |
| 1,164 | Günther Fox | 2:59.09 | 0 | 0 |
| 1,165 | ♫ McPixel ♫ | 3:00.41 | 0 | 0 |
| 1,166 | RUBASS | 3:00.85 | 0 | 0 |
| 1,167 | Pixelbo | 3:01.86 | 0 | 0 |
| 1,168 | VC42 | 3:01.93 | 0 | 0 |
| 1,169 | Akapaya | 3:02.03 | 0 | 0 |
| 1,170 | Muse | 3:02.84 | 0 | 0 |
| 1,171 | CapleGuion | 3:03.50 | 0 | 0 |
| 1,172 | DarqFox | 3:04.18 | 0 | 0 |
| 1,173 | Damok | 3:04.37 | 0 | 0 |
| 1,174 | enerszon | 3:04.53 | 0 | 0 |
| 1,175 | boog2theman | 3:04.99 | 0 | 0 |
| 1,176 | Infernal00086 | 3:05.21 | 0 | 0 |
| 1,177 | Skybox | 3:06.04 | 0 | 0 |
| 1,178 | Nephuxs | 3:07.35 | 0 | 0 |
| 1,179 | Stracciatella | 3:07.44 | 0 | 0 |
| 1,180 | NostalgicRage | 3:07.74 | 0 | 0 |
| 1,181 | Panini | 3:08.11 | 0 | 0 |
| 1,182 | little miss steak | 3:08.14 | 0 | 0 |
| 1,183 | Kalimbato | 3:09.18 | 0 | 0 |
| 1,184 | Nim | 3:09.26 | 0 | 0 |
| 1,185 | Grey | 3:09.98 | 0 | 0 |
| 1,186 | Sleve Mcdichael | 3:10.15 | 0 | 0 |
| 1,187 | noodle | 3:11.34 | 0 | 0 |
| 1,188 | Shanti Reborn | 3:11.98 | 0 | 0 |
| 1,189 | ♠ Jin ♠ | 3:12.62 | 0 | 0 |
| 1,190 | Funnilingus | 3:12.94 | 0 | 0 |
| 1,191 | PΙCΛPΙCΔ | 3:13.01 | 0 | 0 |
| 1,192 | K2Roxa | 3:13.59 | 0 | 0 |
| 1,193 | supertylerx2 | 3:14.15 | 0 | 0 |
| 1,194 | RedRiotRoss | 3:14.41 | 0 | 0 |
| 1,195 | Gordycakes | 3:14.77 | 0 | 0 |
| 1,196 | Wolvahulk | 3:14.90 | 0 | 0 |
| 1,197 | Luis | 3:15.21 | 0 | 0 |
| 1,198 | Its Ge | 3:17.02 | 0 | 0 |
| 1,199 | Juicebox Boi | 3:17.18 | 0 | 0 |
| 1,200 | Pissant (DX Cut) | 3:17.48 | 0 | 0 |
| 1,201 | HoldenC | 3:17.56 | 0 | 0 |
| 1,202 | Tredadawn | 3:19.08 | 0 | 0 |
| 1,203 | KettleTicket | 3:19.56 | 0 | 0 |
| 1,204 | Mr_Rose | 3:20.94 | 0 | 0 |
| 1,205 | Barthel | 3:21.75 | 0 | 0 |
| 1,206 | 19cmNos | 3:22.67 | 0 | 0 |
| 1,207 | Dixie | 3:22.73 | 0 | 0 |
| 1,208 | Melancholy | 3:22.98 | 0 | 0 |
| 1,209 | potion | 3:25.02 | 0 | 0 |
| 1,210 | Olaf222 | 3:25.15 | 0 | 0 |
| 1,211 | jasixtx | 3:25.24 | 0 | 0 |
| 1,212 | gmatsam32 | 3:25.53 | 0 | 0 |
| 1,213 | NATINAUM | 3:26.99 | 0 | 0 |
| 1,214 | Mr Cartmenez | 3:29.68 | 0 | 0 |
| 1,215 | Tigger | 3:30.07 | 0 | 0 |
| 1,216 | metan | 3:31.94 | 0 | 0 |
| 1,217 | _luczs | 3:33.62 | 0 | 0 |
| 1,218 | Corvus and Crater | 3:34.61 | 0 | 0 |
| 1,219 | dryco | 3:34.63 | 0 | 0 |
| 1,220 | TheItsch | 3:35.44 | 0 | 0 |
| 1,221 | K-NiGHT | 3:35.45 | 0 | 0 |
| 1,222 | Isabella | 3:38.59 | 0 | 0 |
| 1,223 | iLuvCuteness | 3:38.63 | 0 | 0 |
| 1,224 | Schleck | 3:40.78 | 0 | 0 |
| 1,225 | DreamgonS | 3:43.22 | 0 | 0 |
| 1,226 | BlueLighted | 3:44.00 | 0 | 0 |
| 1,227 | davislb2 | 3:45.82 | 0 | 0 |
| 1,228 | CrimsonFez | 3:46.13 | 0 | 0 |
| 1,229 | tveh | 3:46.64 | 0 | 0 |
| 1,230 | Juniper | 3:46.65 | 0 | 0 |
| 1,231 | 4onen | 3:48.32 | 0 | 0 |
| 1,232 | Big Disk | 3:50.58 | 0 | 0 |
| 1,233 | The Reaper | 3:51.44 | 0 | 0 |
| 1,234 | taffyko | 3:54.04 | 0 | 0 |
| 1,235 | Silvertail | 3:54.42 | 0 | 0 |
| 1,236 | josh | 3:54.78 | 0 | 0 |
| 1,237 | Pagay | 3:55.49 | 0 | 0 |
| 1,238 | Shinigamix07 | 3:55.76 | 0 | 0 |
| 1,239 | IndusRobot | 3:58.41 | 0 | 0 |
| 1,240 | ouchyzapgun | 4:04.24 | 0 | 0 |
| 1,241 | Tanolex | 4:04.95 | 0 | 0 |
| 1,242 | KarlMarx'sErectPenis | 4:08.65 | 0 | 0 |
| 1,243 | Fromage | 4:09.27 | 0 | 0 |
| 1,244 | Inzarin | 4:18.40 | 0 | 0 |
| 1,245 | すたみん | 4:24.23 | 0 | 0 |
| 1,246 | Kristian | 4:26.78 | 0 | 0 |
| 1,247 | GD Taylor | 4:27.34 | 0 | 0 |
| 1,248 | Crash | 4:29.35 | 0 | 0 |
| 1,249 | Jaazielito | 4:32.76 | 0 | 0 |
| 1,250 | Dramatic Look Gopher | 4:37.31 | 0 | 0 |
| 1,251 | Meisolus | 4:40.98 | 0 | 0 |
| 1,252 | Simon911 | 4:43.57 | 0 | 0 |
| 1,253 | [_________] | 4:47.78 | 0 | 0 |
| 1,254 | Peder Loustik (CuP'Ultras) | 4:50.15 | 0 | 0 |
| 1,255 | Skyward Nerd | 4:54.53 | 0 | 0 |
| 1,256 | VinoStained | 4:56.44 | 0 | 0 |
| 1,257 | VAnDalIsM | 4:59.76 | 0 | 0 |
| 1,258 | w5k | 5:02.07 | 0 | 0 |
| 1,259 | Apple | 5:12.40 | 0 | 0 |
| 1,260 | Baudolino | 5:16.79 | 0 | 0 |
| 1,261 | DieMarlboroFrau | 5:25.46 | 0 | 0 |
| 1,262 | epicRedHot | 5:27.81 | 0 | 0 |
| 1,263 | KingSpammerNerd | 5:36.31 | 0 | 0 |
| 1,264 | // Vaffe | 5:40.31 | 0 | 0 |
| 1,265 | Ashreal | 5:58.44 | 0 | 0 |
| 1,266 | TychoDragon | 5:59.85 | 0 | 0 |
| 1,267 | Mr. Bird | 6:13.60 | 0 | 0 |
| 1,268 | HannahBarbarian | 6:25.46 | 0 | 0 |
| 1,269 | iamzim | 6:27.11 | 0 | 0 |
| 1,270 | LenaScript | 12:07.28 | 0 | 0 |
| 1,271 | Falling Sun | 5:03:04.72 | 0 | 0 |
HoldGrip